Time;durP1;ratioP1;P1;durP2;ratioP2;P2;SDS_P1;SDS_P2;PMS_P1;PMS_P2;Temp;Humidity;BMP_temperature;BMP_pressure;BME280_temperature;BME280_humidity;BME280_pressure;Samples;Min_cycle;Max_cycle;Signal;HPM_P1;HPM_P2
2023/05/29 03:01:03;;;;;;;20.75;3.30;;;9.10;99.90;;;;;;5696523;23;20054;-75
2023/05/29 03:03:29;;;;;;;18.02;3.30;;;9.10;99.90;;;;;;4972900;28;20051;-75
2023/05/29 03:05:55;;;;;;;14.65;2.83;;;9.10;99.90;;;;;;4973826;28;20053;-76
2023/05/29 03:08:20;;;;;;;21.70;3.35;;;9.10;99.90;;;;;;4974941;28;20051;-75
2023/05/29 03:10:47;;;;;;;17.08;2.83;;;9.10;99.90;;;;;;4973489;28;20045;-76
2023/05/29 03:13:13;;;;;;;20.63;3.47;;;9.10;99.90;;;;;;4973433;28;20102;-76
2023/05/29 03:15:39;;;;;;;13.85;3.08;;;9.10;99.90;;;;;;4973494;28;20046;-77
2023/05/29 03:18:04;;;;;;;19.48;3.10;;;9.10;99.90;;;;;;4975113;28;20041;-75
2023/05/29 03:20:30;;;;;;;22.13;4.30;;;9.00;99.90;;;;;;4974517;28;20039;-77
2023/05/29 03:22:56;;;;;;;15.52;2.63;;;9.00;99.90;;;;;;4973591;28;20137;-76
2023/05/29 03:25:22;;;;;;;14.63;2.55;;;9.00;99.90;;;;;;4975063;28;20046;-75
2023/05/29 03:27:47;;;;;;;15.15;3.10;;;9.00;99.90;;;;;;4974515;28;20101;-76
2023/05/29 03:30:14;;;;;;;16.48;2.90;;;9.00;99.90;;;;;;4974406;28;20038;-75
2023/05/29 03:32:40;;;;;;;12.13;3.35;;;9.00;99.90;;;;;;4973263;28;20126;-75
2023/05/29 03:35:06;;;;;;;22.67;3.33;;;9.00;99.90;;;;;;4974561;28;20038;-76
2023/05/29 03:37:32;;;;;;;22.63;3.55;;;9.00;99.90;;;;;;4973291;28;20431;-74
2023/05/29 03:39:57;;;;;;;14.93;2.85;;;9.00;99.90;;;;;;4957852;28;20038;-75
2023/05/29 03:42:23;;;;;;;16.67;2.90;;;8.90;99.90;;;;;;4974631;28;20401;-76
2023/05/29 03:44:48;;;;;;;18.02;3.08;;;8.90;99.90;;;;;;4973590;28;20373;-76
2023/05/29 03:47:14;;;;;;;15.73;3.45;;;8.90;99.90;;;;;;4973418;28;20046;-76
2023/05/29 03:49:40;;;;;;;17.02;3.13;;;8.90;99.90;;;;;;4957089;28;20043;-74
2023/05/29 03:52:05;;;;;;;15.65;2.78;;;8.90;99.90;;;;;;4957041;28;20457;-75
2023/05/29 03:54:32;;;;;;;18.27;3.72;;;8.80;99.90;;;;;;4956912;28;20042;-74
2023/05/29 03:56:57;;;;;;;13.73;2.92;;;8.80;99.90;;;;;;4974816;28;20039;-75
2023/05/29 03:59:23;;;;;;;13.55;3.30;;;8.80;99.90;;;;;;4974629;28;20047;-77
2023/05/29 04:01:49;;;;;;;23.48;4.93;;;8.80;99.90;;;;;;4973946;28;20053;-76
2023/05/29 04:04:14;;;;;;;16.00;3.20;;;8.80;99.90;;;;;;4972888;28;20091;-75
2023/05/29 04:06:41;;;;;;;17.63;3.03;;;8.80;99.90;;;;;;4973140;28;20039;-75
2023/05/29 04:09:07;;;;;;;16.88;3.45;;;8.90;99.90;;;;;;4972937;28;20122;-75
2023/05/29 04:11:36;;;;;;;17.73;4.07;;;8.80;99.90;;;;;;4972634;28;20522;-75
2023/05/29 04:14:02;;;;;;;12.27;3.45;;;8.80;99.90;;;;;;4976715;28;20150;-73
2023/05/29 04:16:28;;;;;;;14.88;2.92;;;8.90;99.90;;;;;;4977829;28;20390;-74
2023/05/29 04:18:55;;;;;;;18.45;3.33;;;8.80;99.90;;;;;;4976707;28;20117;-74
2023/05/29 04:21:21;;;;;;;17.60;3.67;;;8.90;99.90;;;;;;4976431;28;20070;-75
2023/05/29 04:23:46;;;;;;;16.00;2.80;;;8.90;99.90;;;;;;4976528;28;20125;-74
2023/05/29 04:26:12;;;;;;;15.38;3.10;;;8.90;99.90;;;;;;4977735;28;20042;-74
2023/05/29 04:28:39;;;;;;;20.80;4.05;;;8.90;99.90;;;;;;4976708;28;20544;-76
2023/05/29 04:31:05;;;;;;;19.63;3.60;;;9.00;99.90;;;;;;4977814;28;20042;-74
2023/05/29 04:33:32;;;;;;;19.52;3.55;;;9.10;99.90;;;;;;4976278;28;20047;-76
2023/05/29 04:36:00;;;;;;;16.10;3.30;;;9.10;99.90;;;;;;4976524;28;20081;-76
2023/05/29 04:38:26;;;;;;;20.08;3.15;;;9.10;99.90;;;;;;4976333;28;20405;-75
2023/05/29 04:40:57;;;;;;;21.10;3.58;;;9.10;99.90;;;;;;4976231;28;20481;-73
2023/05/29 04:43:26;;;;;;;15.13;2.78;;;9.10;99.90;;;;;;4976152;28;20106;-75
2023/05/29 04:45:53;;;;;;;21.40;3.83;;;9.20;99.90;;;;;;4977155;28;20043;-76
2023/05/29 04:48:18;;;;;;;19.38;3.40;;;9.20;99.90;;;;;;4976446;28;20058;-76
2023/05/29 04:50:45;;;;;;;17.25;3.13;;;9.20;99.90;;;;;;4975968;28;20046;-76
2023/05/29 04:53:11;;;;;;;14.68;2.90;;;9.20;99.90;;;;;;4977442;28;20065;-76
2023/05/29 04:55:36;;;;;;;14.75;3.55;;;9.20;99.90;;;;;;4976008;28;20505;-75
2023/05/29 04:58:02;;;;;;;15.48;3.13;;;9.30;99.90;;;;;;4975846;28;20426;-76
2023/05/29 05:00:28;;;;;;;16.52;3.05;;;9.30;99.90;;;;;;4976337;28;20043;-76
2023/05/29 05:02:55;;;;;;;19.77;4.10;;;9.30;99.90;;;;;;4976054;28;20109;-74
2023/05/29 05:05:21;;;;;;;15.45;3.70;;;9.30;99.90;;;;;;4975857;28;20055;-74
2023/05/29 05:07:46;;;;;;;11.52;2.88;;;9.40;99.90;;;;;;4975813;28;20043;-76
2023/05/29 05:10:12;;;;;;;16.25;3.10;;;9.40;99.90;;;;;;4977161;28;20097;-76
2023/05/29 05:12:38;;;;;;;20.42;3.40;;;9.40;99.90;;;;;;4977327;28;20375;-76
2023/05/29 05:15:04;;;;;;;25.15;3.60;;;9.50;99.90;;;;;;4959802;28;20043;-76
2023/05/29 05:17:30;;;;;;;17.25;4.13;;;9.50;99.90;;;;;;4975514;28;20047;-75
2023/05/29 05:19:56;;;;;;;18.42;3.28;;;9.60;99.90;;;;;;4975670;28;20042;-74
2023/05/29 05:22:21;;;;;;;17.98;3.25;;;9.60;99.90;;;;;;4975372;28;20101;-75
2023/05/29 05:24:47;;;;;;;21.10;4.07;;;9.60;99.90;;;;;;4976008;28;20038;-74
2023/05/29 05:27:13;;;;;;;15.65;2.88;;;9.60;99.90;;;;;;4975540;28;20034;-75
2023/05/29 05:29:38;;;;;;;15.20;3.17;;;9.70;99.90;;;;;;4976492;28;20108;-75
2023/05/29 05:32:04;;;;;;;15.70;3.55;;;9.80;99.90;;;;;;4975927;28;20050;-75
2023/05/29 05:34:30;;;;;;;24.05;3.78;;;9.80;99.90;;;;;;4975155;28;20402;-74
2023/05/29 05:36:56;;;;;;;16.35;3.03;;;9.80;99.90;;;;;;4975218;28;20039;-74
2023/05/29 05:39:22;;;;;;;18.83;3.28;;;9.90;99.90;;;;;;4976754;28;20178;-74
2023/05/29 05:41:47;;;;;;;15.88;3.50;;;10.00;99.90;;;;;;4975266;28;20039;-73
2023/05/29 05:44:13;;;;;;;18.60;3.20;;;10.00;99.90;;;;;;4975206;28;20082;-75
2023/05/29 05:46:39;;;;;;;17.17;2.72;;;10.10;99.90;;;;;;4976895;28;20334;-76
2023/05/29 05:49:04;;;;;;;17.98;3.25;;;10.10;99.90;;;;;;4975256;28;20486;-76
2023/05/29 05:51:30;;;;;;;19.52;2.88;;;10.20;99.90;;;;;;4974868;28;20038;-76
2023/05/29 05:53:56;;;;;;;13.90;3.22;;;10.20;99.90;;;;;;4975224;28;20035;-74
2023/05/29 05:56:22;;;;;;;12.82;2.88;;;10.30;99.90;;;;;;4976126;28;20035;-74
2023/05/29 05:58:49;;;;;;;12.73;2.80;;;10.40;99.90;;;;;;4975050;28;20039;-75
2023/05/29 06:01:15;;;;;;;13.70;2.88;;;10.40;99.90;;;;;;4976029;28;20043;-76
2023/05/29 06:03:41;;;;;;;16.30;2.70;;;10.50;99.90;;;;;;4976285;28;20144;-75
2023/05/29 06:06:08;;;;;;;12.55;2.75;;;10.60;99.90;;;;;;4974874;28;20035;-76
2023/05/29 06:08:34;;;;;;;17.02;3.28;;;10.70;99.90;;;;;;4974828;28;20125;-76
2023/05/29 06:10:59;;;;;;;15.70;2.90;;;10.80;99.90;;;;;;4974677;28;20130;-74
2023/05/29 06:13:25;;;;;;;15.32;2.22;;;10.90;99.90;;;;;;4974310;28;20054;-75
2023/05/29 06:15:51;;;;;;;15.40;2.45;;;10.90;99.90;;;;;;4975689;28;20097;-75
2023/05/29 06:18:17;;;;;;;17.13;3.05;;;11.00;99.90;;;;;;4974509;28;20050;-75
2023/05/29 06:20:43;;;;;;;18.70;3.00;;;11.10;99.90;;;;;;4975713;28;20031;-74
2023/05/29 06:23:08;;;;;;;17.27;3.13;;;11.20;99.90;;;;;;4976216;28;20043;-76
2023/05/29 06:25:34;;;;;;;13.82;2.58;;;11.20;99.90;;;;;;4975546;28;20552;-75
2023/05/29 06:28:00;;;;;;;17.13;2.42;;;11.30;99.90;;;;;;4975467;28;20039;-75
2023/05/29 06:30:27;;;;;;;18.30;2.85;;;11.30;99.90;;;;;;4975569;28;20042;-76
2023/05/29 06:32:52;;;;;;;15.90;2.60;;;11.40;99.90;;;;;;4975637;28;20435;-76
2023/05/29 06:35:18;;;;;;;15.05;2.72;;;11.40;99.90;;;;;;4975684;28;20142;-75
2023/05/29 06:37:45;;;;;;;19.10;3.17;;;11.40;99.90;;;;;;4975715;28;20117;-75
2023/05/29 06:40:15;;;;;;;15.32;3.53;;;11.50;99.90;;;;;;4975330;28;20038;-75
2023/05/29 06:42:44;;;;;;;16.23;2.83;;;11.50;99.90;;;;;;4974196;28;20049;-74
2023/05/29 06:45:13;;;;;;;21.40;3.40;;;11.50;99.90;;;;;;4975351;28;20121;-76
2023/05/29 06:47:40;;;;;;;16.30;3.00;;;11.60;99.90;;;;;;4975397;28;20039;-75
2023/05/29 06:50:06;;;;;;;17.58;3.40;;;11.70;99.90;;;;;;4975406;28;20046;-74
2023/05/29 06:52:32;;;;;;;20.95;3.75;;;11.70;99.90;;;;;;4957773;28;20046;-74
2023/05/29 06:54:57;;;;;;;18.67;3.58;;;11.80;99.90;;;;;;4974089;28;20565;-74
2023/05/29 06:57:23;;;;;;;21.30;3.22;;;11.80;99.90;;;;;;4973907;28;20082;-74
2023/05/29 06:59:49;;;;;;;18.13;3.60;;;11.90;99.90;;;;;;4975081;28;20041;-76
2023/05/29 07:02:14;;;;;;;24.73;3.40;;;12.00;99.90;;;;;;4974828;28;20449;-75
2023/05/29 07:04:40;;;;;;;15.82;3.40;;;12.00;99.90;;;;;;4973638;28;20405;-74
2023/05/29 07:07:06;;;;;;;21.33;3.83;;;12.10;99.90;;;;;;4974793;28;20038;-74
2023/05/29 07:09:32;;;;;;;15.90;3.83;;;12.20;99.90;;;;;;4973521;28;20109;-74
2023/05/29 07:11:57;;;;;;;17.58;3.08;;;12.20;99.90;;;;;;4974831;28;20055;-75
2023/05/29 07:14:23;;;;;;;13.48;3.03;;;12.30;99.90;;;;;;4974946;28;20049;-76
2023/05/29 07:16:49;;;;;;;21.88;3.45;;;12.40;99.90;;;;;;4974828;28;20034;-74
2023/05/29 07:19:16;;;;;;;15.75;3.17;;;12.40;99.90;;;;;;4975409;28;20042;-76
2023/05/29 07:21:41;;;;;;;15.13;3.50;;;12.40;99.90;;;;;;4973639;28;20243;-75
2023/05/29 07:24:07;;;;;;;14.75;3.13;;;12.50;99.90;;;;;;4974159;28;20172;-76
2023/05/29 07:26:33;;;;;;;21.83;5.05;;;12.50;99.90;;;;;;4974327;28;20086;-75
2023/05/29 07:28:58;;;;;;;13.90;2.80;;;12.60;99.90;;;;;;4973492;28;20121;-74
2023/05/29 07:31:24;;;;;;;18.77;3.30;;;12.70;99.90;;;;;;4973182;28;20045;-73
2023/05/29 07:33:50;;;;;;;17.52;3.92;;;12.70;99.90;;;;;;4973332;28;20046;-76
2023/05/29 07:36:17;;;;;;;16.52;3.42;;;12.70;99.90;;;;;;4973029;28;20039;-74
2023/05/29 07:38:43;;;;;;;18.73;4.10;;;12.70;99.90;;;;;;4974703;28;20119;-75
2023/05/29 07:41:09;;;;;;;23.30;3.72;;;12.70;99.90;;;;;;4974562;28;20078;-77
2023/05/29 07:43:35;;;;;;;15.98;3.15;;;12.80;99.90;;;;;;4973606;28;20082;-71
2023/05/29 07:46:01;;;;;;;22.80;3.80;;;12.80;99.90;;;;;;4973178;28;20446;-74
2023/05/29 07:48:27;;;;;;;18.50;3.45;;;13.00;99.90;;;;;;4974299;28;20089;-75
2023/05/29 07:50:53;;;;;;;14.07;3.35;;;13.00;99.90;;;;;;4976893;28;20050;-75
2023/05/29 07:53:18;;;;;;;19.27;3.78;;;13.10;99.90;;;;;;4977104;28;20046;-75
2023/05/29 07:55:44;;;;;;;16.95;3.85;;;13.20;99.90;;;;;;4977246;28;20372;-74
2023/05/29 07:58:11;;;;;;;16.58;3.40;;;13.20;99.90;;;;;;4978265;28;20536;-74
2023/05/29 08:00:38;;;;;;;21.75;3.40;;;13.20;99.90;;;;;;4976958;28;20062;-75
2023/05/29 08:03:04;;;;;;;17.65;3.17;;;13.20;99.90;;;;;;4978767;28;20121;-75
2023/05/29 08:05:31;;;;;;;24.98;4.07;;;13.20;99.90;;;;;;4976936;28;20452;-75
2023/05/29 08:07:58;;;;;;;18.17;3.70;;;13.30;99.90;;;;;;4977075;28;20339;-75
2023/05/29 08:10:24;;;;;;;15.00;3.38;;;13.30;99.90;;;;;;4976571;28;20097;-75
2023/05/29 08:12:51;;;;;;;19.48;3.65;;;13.40;99.90;;;;;;4976660;28;20050;-75
2023/05/29 08:15:18;;;;;;;23.05;3.75;;;13.50;99.90;;;;;;4976630;28;20138;-76
2023/05/29 08:17:44;;;;;;;17.95;4.10;;;13.60;99.90;;;;;;4978244;28;20046;-77
2023/05/29 08:20:10;;;;;;;14.60;3.25;;;13.70;99.90;;;;;;4976817;28;20043;-76
2023/05/29 08:22:36;;;;;;;14.48;3.10;;;13.70;99.90;;;;;;4976227;28;20418;-75
2023/05/29 08:25:01;;;;;;;19.00;4.20;;;13.80;99.90;;;;;;4977908;28;20122;-75
2023/05/29 08:27:27;;;;;;;14.30;3.20;;;13.80;99.90;;;;;;4976611;28;20402;-74
2023/05/29 08:29:54;;;;;;;18.90;3.80;;;13.90;99.90;;;;;;4976475;28;20043;-75
2023/05/29 08:32:20;;;;;;;14.73;3.03;;;14.00;99.90;;;;;;4977467;28;20422;-75
2023/05/29 08:34:46;;;;;;;16.42;3.75;;;14.10;99.90;;;;;;4976473;28;20043;-74
2023/05/29 08:37:12;;;;;;;18.88;4.15;;;14.20;99.90;;;;;;4976149;28;20043;-75
2023/05/29 08:39:38;;;;;;;22.30;3.38;;;14.20;99.90;;;;;;4976378;28;20046;-75
2023/05/29 08:42:04;;;;;;;14.52;3.10;;;14.30;99.90;;;;;;4976435;28;20046;-75
2023/05/29 08:44:33;;;;;;;24.15;3.72;;;14.40;99.90;;;;;;4975954;28;20109;-75
2023/05/29 08:47:03;;;;;;;11.25;3.75;;;14.40;99.90;;;;;;4977326;28;20034;-75
2023/05/29 08:49:34;;;;;;;16.88;3.38;;;14.60;99.90;;;;;;4976516;28;20046;-75
2023/05/29 08:52:13;;;;;;;19.75;3.17;;;14.60;99.90;;;;;;4976060;28;20078;-75
2023/05/29 08:54:40;;;;;;;18.15;3.35;;;14.60;99.90;;;;;;4976610;28;20071;-75
2023/05/29 08:57:06;;;;;;;11.60;2.88;;;14.70;99.90;;;;;;4976357;28;20490;-75
2023/05/29 08:59:34;;;;;;;13.05;3.30;;;14.70;99.90;;;;;;4976649;28;20042;-76
2023/05/29 09:02:00;;;;;;;22.88;3.35;;;14.70;99.90;;;;;;4976862;28;20494;-76
2023/05/29 09:04:28;;;;;;;19.02;3.35;;;14.70;99.90;;;;;;4977645;28;20109;-74
2023/05/29 09:06:55;;;;;;;24.15;3.63;;;14.80;99.90;;;;;;4976396;28;20050;-75
2023/05/29 09:09:20;;;;;;;19.05;2.95;;;14.80;99.90;;;;;;4977383;28;20113;-74
2023/05/29 09:11:46;;;;;;;26.40;5.22;;;14.90;99.90;;;;;;4975914;28;20549;-75
2023/05/29 09:14:42;;;;;;;23.73;3.25;;;15.00;99.90;;;;;;4976100;28;20041;-75
2023/05/29 09:17:09;;;;;;;13.48;2.83;;;15.10;99.90;;;;;;4975729;28;20043;-74
2023/05/29 09:19:37;;;;;;;19.48;3.33;;;15.10;99.90;;;;;;4975859;28;20553;-74
2023/05/29 09:22:05;;;;;;;21.42;3.28;;;15.20;99.90;;;;;;4976918;28;20482;-76
2023/05/29 09:24:36;;;;;;;19.35;3.67;;;15.30;99.90;;;;;;4976672;28;20043;-75
2023/05/29 09:27:04;;;;;;;22.38;3.35;;;15.40;99.90;;;;;;4976478;28;20086;-75
2023/05/29 09:29:33;;;;;;;19.70;3.78;;;15.40;99.90;;;;;;4958977;28;20077;-76
2023/05/29 09:32:00;;;;;;;15.20;3.42;;;15.40;99.90;;;;;;4974941;28;20053;-76
2023/05/29 09:34:29;;;;;;;20.05;3.60;;;15.40;99.90;;;;;;4974995;28;20102;-76
2023/05/29 09:37:08;;;;;;;13.75;3.15;;;15.40;99.90;;;;;;4975269;28;20050;-75
2023/05/29 09:39:51;;;;;;;18.05;3.28;;;15.30;99.90;;;;;;4974969;28;20525;-76
2023/05/29 09:42:17;;;;;;;19.08;4.05;;;15.30;99.90;;;;;;4974848;28;20121;-75
2023/05/29 09:44:53;;;;;;;18.10;3.03;;;15.20;99.90;;;;;;4976273;28;20049;-76
2023/05/29 09:47:19;;;;;;;16.15;3.35;;;15.20;99.90;;;;;;4975157;28;20042;-76
2023/05/29 09:49:49;;;;;;;14.35;2.83;;;15.20;99.90;;;;;;4975039;28;20091;-75
2023/05/29 09:52:20;;;;;;;16.52;2.60;;;15.20;99.90;;;;;;4975153;28;20042;-75
2023/05/29 09:54:46;;;;;;;16.15;4.05;;;15.20;99.90;;;;;;4974696;28;20042;-76
2023/05/29 09:57:17;;;;;;;17.23;3.53;;;15.30;99.90;;;;;;4976231;28;20093;-76
2023/05/29 09:59:51;;;;;;;16.40;2.90;;;15.30;99.90;;;;;;4974527;28;20046;-75
2023/05/29 10:02:17;;;;;;;19.70;3.47;;;15.40;99.90;;;;;;4974387;28;20047;-75
2023/05/29 10:04:46;;;;;;;18.88;3.47;;;15.40;99.90;;;;;;4975741;28;20038;-76
2023/05/29 10:07:17;;;;;;;24.27;4.20;;;15.50;99.90;;;;;;4974592;28;20038;-76
2023/05/29 10:09:47;;;;;;;18.05;3.65;;;15.60;99.90;;;;;;4976107;28;20475;-75
2023/05/29 10:12:13;;;;;;;20.27;4.72;;;15.70;99.90;;;;;;4974031;28;20511;-77
2023/05/29 10:14:41;;;;;;;19.40;3.78;;;15.90;99.90;;;;;;4974490;28;20383;-75
2023/05/29 10:17:08;;;;;;;17.35;3.50;;;15.80;99.90;;;;;;4975441;28;20039;-74
2023/05/29 10:19:38;;;;;;;19.23;3.40;;;15.80;99.90;;;;;;4974555;28;20051;-76
2023/05/29 10:22:07;;;;;;;21.15;3.40;;;15.90;99.90;;;;;;4975405;28;20051;-76
2023/05/29 10:24:36;;;;;;;22.08;3.72;;;15.90;99.90;;;;;;4975373;28;20042;-75
2023/05/29 10:27:03;;;;;;;16.48;3.38;;;16.10;99.90;;;;;;4973987;28;20051;-75
2023/05/29 10:29:45;;;;;;;24.23;4.20;;;16.10;99.90;;;;;;4975556;28;20035;-74
2023/05/29 10:32:35;;;;;;;19.00;2.75;;;16.00;99.90;;;;;;4975477;28;20359;-74
2023/05/29 10:35:04;;;;;;;17.25;3.20;;;16.00;99.90;;;;;;4975196;28;20065;-75
2023/05/29 10:37:57;;;;;;;17.70;3.88;;;16.00;99.90;;;;;;4973879;28;20058;-75
2023/05/29 10:40:25;;;;;;;16.95;2.90;;;16.10;99.90;;;;;;4973802;28;20042;-75
2023/05/29 10:42:54;;;;;;;14.55;3.55;;;16.20;99.90;;;;;;4974043;28;20079;-76
2023/05/29 10:45:32;;;;;;;13.30;2.92;;;16.20;99.90;;;;;;4973728;28;20130;-75
2023/05/29 10:48:06;;;;;;;17.00;3.63;;;16.40;99.90;;;;;;4973670;28;20057;-75
2023/05/29 10:50:51;;;;;;;18.50;3.33;;;16.50;99.90;;;;;;4974853;28;20129;-76
2023/05/29 10:53:30;;;;;;;16.60;3.40;;;16.60;99.90;;;;;;4975151;28;20043;-75
2023/05/29 10:55:58;;;;;;;16.52;3.20;;;16.70;99.90;;;;;;4973580;28;20034;-76
2023/05/29 10:58:25;;;;;;;18.38;4.13;;;16.80;99.90;;;;;;4974683;28;20055;-76
2023/05/29 11:00:54;;;;;;;16.40;3.47;;;16.80;99.90;;;;;;4973445;28;20052;-76
2023/05/29 11:03:31;;;;;;;14.98;3.00;;;16.90;99.90;;;;;;4974819;28;20117;-76
2023/05/29 11:06:10;;;;;;;15.13;2.85;;;16.90;99.90;;;;;;4973689;28;20129;-76
2023/05/29 11:08:46;;;;;;;16.92;3.30;;;17.00;99.90;;;;;;4974418;28;20050;-75
2023/05/29 11:11:13;;;;;;;18.08;3.50;;;17.00;99.90;;;;;;4973413;28;20545;-76
2023/05/29 11:13:44;;;;;;;15.70;3.75;;;17.00;99.90;;;;;;4974582;28;20512;-76
2023/05/29 11:16:25;;;;;;;17.95;3.13;;;16.90;99.90;;;;;;4973463;28;20498;-76
2023/05/29 11:18:52;;;;;;;20.45;3.40;;;17.10;99.90;;;;;;4973372;28;20038;-75
2023/05/29 11:21:44;;;;;;;18.27;3.83;;;17.20;99.90;;;;;;4974548;28;20046;-75
2023/05/29 11:24:24;;;;;;;15.63;3.58;;;17.40;99.90;;;;;;4972720;28;20113;-76
2023/05/29 11:26:51;;;;;;;14.50;3.67;;;17.50;99.90;;;;;;4973301;28;20042;-75
2023/05/29 11:29:24;;;;;;;15.75;3.30;;;17.60;99.90;;;;;;4973454;28;20058;-76
2023/05/29 11:32:04;;;;;;;16.45;3.35;;;17.70;99.90;;;;;;4974430;28;20051;-77
2023/05/29 11:34:32;;;;;;;24.77;4.03;;;17.80;99.90;;;;;;4973581;28;20122;-75
2023/05/29 11:37:02;;;;;;;16.73;3.65;;;17.90;99.90;;;;;;4957749;28;20047;-77
2023/05/29 11:39:28;;;;;;;15.95;3.25;;;17.90;99.90;;;;;;4974621;28;20142;-76
2023/05/29 11:41:55;;;;;;;17.88;3.20;;;18.00;99.90;;;;;;4975022;28;20054;-76
2023/05/29 11:44:23;;;;;;;18.27;3.70;;;18.20;99.90;;;;;;4957526;28;20053;-74
2023/05/29 11:47:02;;;;;;;14.85;2.90;;;18.30;99.90;;;;;;4974715;28;20035;-75
2023/05/29 11:49:36;;;;;;;14.13;2.85;;;18.50;99.90;;;;;;4973472;28;20109;-75
2023/05/29 11:52:13;;;;;;;17.50;2.85;;;18.50;99.90;;;;;;4975250;28;20125;-75
2023/05/29 11:54:46;;;;;;;12.02;3.10;;;18.60;99.90;;;;;;4973520;28;20070;-76
2023/05/29 11:57:20;;;;;;;10.65;2.97;;;18.70;99.90;;;;;;4975223;28;20493;-76
2023/05/29 11:59:46;;;;;;;15.02;2.80;;;18.70;99.90;;;;;;4973154;28;20046;-76
2023/05/29 12:02:12;;;;;;;12.05;2.75;;;18.70;99.90;;;;;;4974485;28;20074;-75
2023/05/29 12:04:38;;;;;;;13.00;2.92;;;18.60;99.90;;;;;;4973392;28;20058;-76
2023/05/29 12:07:17;;;;;;;14.93;3.42;;;18.70;99.90;;;;;;4974200;28;20043;-76
2023/05/29 12:09:43;;;;;;;18.50;2.80;;;18.80;99.90;;;;;;4975070;28;20122;-75
2023/05/29 12:12:09;;;;;;;16.95;2.88;;;19.00;99.90;;;;;;4973223;28;20469;-76
2023/05/29 12:14:34;;;;;;;12.52;2.97;;;19.20;99.90;;;;;;4957000;28;20520;-75
2023/05/29 12:17:00;;;;;;;14.48;2.80;;;19.40;99.90;;;;;;4972990;28;20121;-76
2023/05/29 12:19:26;;;;;;;17.48;3.15;;;19.50;99.90;;;;;;4973720;28;20053;-75
2023/05/29 12:21:52;;;;;;;12.20;3.38;;;19.40;99.90;;;;;;4973090;28;20038;-75
2023/05/29 12:24:21;;;;;;;19.80;3.38;;;19.40;99.90;;;;;;4972985;28;20047;-75
2023/05/29 12:26:50;;;;;;;16.60;3.17;;;19.40;99.90;;;;;;4956766;28;20051;-74
2023/05/29 12:29:16;;;;;;;12.43;3.03;;;19.40;99.90;;;;;;4972931;28;20047;-74
2023/05/29 12:31:42;;;;;;;14.77;3.05;;;19.50;99.90;;;;;;4972881;28;20113;-76
2023/05/29 12:34:12;;;;;;;15.07;3.65;;;19.50;99.90;;;;;;4957492;28;20398;-75
2023/05/29 12:36:44;;;;;;;13.57;2.85;;;19.40;99.90;;;;;;4976280;28;20544;-74
2023/05/29 12:39:09;;;;;;;15.10;2.75;;;19.40;99.90;;;;;;4976463;28;20093;-75
2023/05/29 12:41:37;;;;;;;9.18;2.47;;;19.30;99.40;;;;;;4976457;28;20386;-75
2023/05/29 12:44:04;;;;;;;12.90;3.38;;;19.30;99.60;;;;;;4976226;28;20039;-75
2023/05/29 12:46:43;;;;;;;14.82;2.65;;;19.20;99.30;;;;;;4976271;28;20090;-75
2023/05/29 12:49:18;;;;;;;15.15;3.65;;;19.30;99.30;;;;;;4975993;28;20085;-75
2023/05/29 12:51:46;;;;;;;15.50;2.67;;;19.40;99.60;;;;;;4975821;28;20051;-72
2023/05/29 12:54:16;;;;;;;16.40;2.83;;;19.60;99.50;;;;;;4977710;28;20533;-75
2023/05/29 12:56:42;;;;;;;14.88;3.03;;;19.80;99.30;;;;;;4976302;28;20081;-76
2023/05/29 12:59:08;;;;;;;12.60;2.60;;;19.80;99.00;;;;;;4976045;28;20130;-76
2023/05/29 13:01:35;;;;;;;8.88;2.40;;;19.90;99.00;;;;;;4975705;28;20495;-75
2023/05/29 13:04:01;;;;;;;13.05;2.60;;;20.00;98.60;;;;;;4975797;28;20042;-76
2023/05/29 13:06:26;;;;;;;11.25;3.10;;;20.00;98.60;;;;;;4977198;28;20038;-75
2023/05/29 13:08:52;;;;;;;15.88;2.70;;;20.00;98.00;;;;;;4977053;28;20470;-76
2023/05/29 13:11:18;;;;;;;11.65;2.70;;;20.10;98.30;;;;;;4975785;28;20118;-76
2023/05/29 13:13:44;;;;;;;17.42;3.05;;;20.10;97.70;;;;;;4977826;28;20095;-76
2023/05/29 13:16:10;;;;;;;12.15;2.75;;;20.00;97.40;;;;;;4975540;28;20119;-74
2023/05/29 13:18:35;;;;;;;14.73;2.60;;;20.00;96.90;;;;;;4975359;28;20146;-75
2023/05/29 13:21:01;;;;;;;9.45;2.25;;;20.10;96.90;;;;;;4977390;28;20046;-75
2023/05/29 13:23:27;;;;;;;18.85;3.25;;;20.10;96.60;;;;;;4976603;28;20045;-77
2023/05/29 13:25:52;;;;;;;14.85;3.03;;;20.30;96.60;;;;;;4975638;28;20180;-75
2023/05/29 13:28:18;;;;;;;15.57;2.60;;;20.30;96.80;;;;;;4975288;28;20486;-77
2023/05/29 13:30:44;;;;;;;15.40;2.83;;;20.40;96.80;;;;;;4975165;28;20433;-75
2023/05/29 13:33:10;;;;;;;11.15;2.55;;;20.40;96.70;;;;;;4976767;28;20093;-75
2023/05/29 13:35:36;;;;;;;15.63;2.72;;;20.50;96.80;;;;;;4975047;28;20066;-75
2023/05/29 13:38:02;;;;;;;10.80;2.50;;;20.70;96.50;;;;;;4975324;28;20363;-75
2023/05/29 13:40:28;;;;;;;10.95;2.22;;;20.70;95.60;;;;;;4975116;28;20097;-76
2023/05/29 13:42:54;;;;;;;13.52;3.08;;;20.50;95.50;;;;;;4975158;28;20390;-76
2023/05/29 13:45:19;;;;;;;13.50;2.42;;;20.50;95.50;;;;;;4974601;28;20070;-76
2023/05/29 13:47:45;;;;;;;13.57;2.92;;;20.50;95.10;;;;;;4975722;28;20043;-76
2023/05/29 13:50:11;;;;;;;14.90;2.97;;;20.60;95.30;;;;;;4958744;28;20047;-76
2023/05/29 13:52:38;;;;;;;17.27;3.13;;;20.60;95.20;;;;;;4975906;28;20045;-76
2023/05/29 13:55:08;;;;;;;12.13;2.45;;;20.60;94.50;;;;;;4976190;28;20390;-75
2023/05/29 13:57:35;;;;;;;9.63;2.38;;;20.50;94.10;;;;;;4974904;28;20046;-76
2023/05/29 14:00:01;;;;;;;11.68;2.40;;;20.40;93.60;;;;;;4975050;28;20054;-76
2023/05/29 14:02:26;;;;;;;10.73;2.50;;;20.40;93.60;;;;;;4974826;28;20394;-75
2023/05/29 14:04:52;;;;;;;11.20;2.60;;;20.40;92.90;;;;;;4974970;28;20118;-76
2023/05/29 14:07:18;;;;;;;15.13;2.45;;;20.30;92.40;;;;;;4974916;28;20046;-76
2023/05/29 14:09:43;;;;;;;20.83;3.22;;;20.20;92.40;;;;;;4976251;28;20129;-77
2023/05/29 14:12:09;;;;;;;11.57;3.10;;;20.30;93.10;;;;;;4974835;28;20042;-76
2023/05/29 14:14:35;;;;;;;14.40;2.80;;;20.40;93.20;;;;;;4974667;28;20121;-77
2023/05/29 14:17:01;;;;;;;12.48;2.78;;;20.40;93.00;;;;;;4975833;28;20447;-76
2023/05/29 14:19:26;;;;;;;12.60;2.33;;;20.30;92.50;;;;;;4975450;28;20031;-76
2023/05/29 14:21:52;;;;;;;9.15;2.13;;;20.40;92.50;;;;;;4957972;28;20074;-77
2023/05/29 14:24:18;;;;;;;9.40;2.30;;;20.50;92.30;;;;;;4974154;28;20074;-76
2023/05/29 14:26:46;;;;;;;11.73;2.60;;;20.50;92.00;;;;;;4974354;28;20038;-75
2023/05/29 14:29:13;;;;;;;18.95;2.88;;;20.50;91.50;;;;;;4974426;28;20042;-75
2023/05/29 14:31:39;;;;;;;10.98;2.38;;;20.50;91.00;;;;;;4958133;28;20043;-76
2023/05/29 14:34:06;;;;;;;12.88;2.50;;;20.40;90.90;;;;;;4973960;28;20057;-76
2023/05/29 14:36:31;;;;;;;11.05;2.40;;;20.40;91.30;;;;;;4974518;28;20113;-76
2023/05/29 14:38:57;;;;;;;8.82;2.30;;;20.30;91.10;;;;;;4975479;28;20367;-77
2023/05/29 14:41:25;;;;;;;8.35;2.22;;;20.30;91.20;;;;;;4973765;28;20459;-76
2023/05/29 14:43:51;;;;;;;12.63;2.10;;;20.40;91.20;;;;;;4974341;28;20046;-77
2023/05/29 14:46:17;;;;;;;11.18;2.47;;;20.40;91.10;;;;;;4974091;28;20047;-76
2023/05/29 14:48:43;;;;;;;14.82;2.95;;;20.50;91.10;;;;;;4973691;28;20050;-77
2023/05/29 14:51:08;;;;;;;15.43;2.78;;;20.50;91.00;;;;;;4974781;28;20038;-77
2023/05/29 14:53:36;;;;;;;13.77;3.33;;;20.60;91.00;;;;;;4957428;28;20055;-76
2023/05/29 14:56:02;;;;;;;9.55;2.15;;;20.60;90.10;;;;;;4973827;28;20039;-76
2023/05/29 14:58:27;;;;;;;9.68;2.38;;;20.50;89.70;;;;;;4973371;28;20530;-75
2023/05/29 15:00:53;;;;;;;11.18;2.38;;;20.50;89.60;;;;;;4974542;28;20043;-76
2023/05/29 15:03:19;;;;;;;8.90;2.03;;;20.40;88.60;;;;;;4973578;28;20501;-76
2023/05/29 15:05:45;;;;;;;14.23;2.47;;;20.30;87.60;;;;;;4973569;28;20047;-76
2023/05/29 15:08:11;;;;;;;9.43;2.75;;;20.30;87.60;;;;;;4973508;28;20466;-76
2023/05/29 15:10:36;;;;;;;8.55;1.70;;;20.30;86.90;;;;;;4974522;28;20074;-76
2023/05/29 15:13:04;;;;;;;8.93;2.42;;;20.20;86.20;;;;;;4974676;28;20093;-76
2023/05/29 15:15:30;;;;;;;9.20;1.98;;;20.20;85.80;;;;;;4973226;28;20046;-76
2023/05/29 15:17:56;;;;;;;9.93;1.98;;;20.20;85.50;;;;;;4974907;28;20061;-76
2023/05/29 15:20:22;;;;;;;9.02;2.30;;;20.40;86.10;;;;;;4972991;28;20483;-76
2023/05/29 15:22:48;;;;;;;7.40;2.10;;;20.40;86.20;;;;;;4973491;28;20435;-76
2023/05/29 15:25:15;;;;;;;9.80;2.25;;;20.40;85.60;;;;;;4973141;28;20113;-76
2023/05/29 15:27:41;;;;;;;8.65;2.00;;;20.50;85.10;;;;;;4973076;28;20058;-76
2023/05/29 15:30:18;;;;;;;11.07;1.92;;;20.50;83.80;;;;;;4973208;28;20046;-75
2023/05/29 15:32:45;;;;;;;11.40;2.15;;;20.30;82.50;;;;;;4972196;28;20047;-76
2023/05/29 15:35:13;;;;;;;14.13;2.30;;;20.20;83.20;;;;;;4972813;28;20074;-76
2023/05/29 15:37:40;;;;;;;7.40;2.10;;;20.20;83.30;;;;;;4973459;28;20043;-76
2023/05/29 15:40:07;;;;;;;9.55;1.80;;;20.20;83.20;;;;;;4973960;28;20501;-76
2023/05/29 15:42:33;;;;;;;8.20;2.00;;;20.20;82.80;;;;;;4975798;28;20059;-74